Time;durP1;ratioP1;P1;durP2;ratioP2;P2;SDS_P1;SDS_P2;PMS_P1;PMS_P2;Temp;Humidity;BMP_temperature;BMP_pressure;BME280_temperature;BME280_humidity;BME280_pressure;Samples;Min_cycle;Max_cycle;Signal;HPM_P1;HPM_P2
2021/12/27 00:01:55;;;;;;;14.20;6.50;;;;;4.00;96950.20;;;;108724;1277;41160;-70
2021/12/27 00:04:24;;;;;;;14.80;6.80;;;;;4.00;96957.60;;;;108816;1275;41145;-71
2021/12/27 00:06:54;;;;;;;13.20;6.60;;;;;4.00;96956.00;;;;108829;1276;41148;-66
2021/12/27 00:09:23;;;;;;;13.50;6.60;;;;;4.00;96952.80;;;;108786;1277;42204;-70
2021/12/27 00:11:53;;;;;;;14.70;7.40;;;;;4.00;96956.00;;;;108636;1277;41550;-71
2021/12/27 00:14:22;;;;;;;15.10;7.00;;;;;3.98;96957.60;;;;108846;1276;41204;-66
2021/12/27 00:16:51;;;;;;;15.20;7.40;;;;;3.92;96958.00;;;;108826;1276;41253;-65
2021/12/27 00:19:21;;;;;;;14.10;6.30;;;;;3.90;96954.40;;;;108689;1277;41710;-70
2021/12/27 00:21:52;;;;;;;13.80;6.50;;;;;3.90;96956.00;;;;108683;1277;42385;-68
2021/12/27 00:24:21;;;;;;;14.50;7.00;;;;;3.90;96949.60;;;;108834;1273;41719;-70
2021/12/27 00:26:52;;;;;;;13.90;6.20;;;;;3.90;96950.60;;;;108845;1276;42411;-69
2021/12/27 00:29:22;;;;;;;;;;;;;3.90;96955.60;;;;108850;1277;41143;-67
2021/12/27 00:31:51;;;;;;;15.00;6.30;;;;;3.90;96956.60;;;;108822;1276;41589;-70
2021/12/27 00:34:21;;;;;;;12.70;6.00;;;;;3.90;96958.40;;;;108796;1277;41139;-70
2021/12/27 00:36:50;;;;;;;14.60;6.60;;;;;3.90;96961.40;;;;108863;1275;41710;-74
2021/12/27 00:39:19;;;;;;;11.70;5.80;;;;;3.90;96959.80;;;;108886;1276;41965;-72
2021/12/27 00:41:48;;;;;;;12.20;6.00;;;;;3.90;96955.40;;;;108815;1276;41229;-65
2021/12/27 00:44:18;;;;;;;12.40;6.10;;;;;3.90;96961.20;;;;108848;1273;41135;-69
2021/12/27 00:46:47;;;;;;;13.10;6.40;;;;;3.90;96960.80;;;;108795;1276;41596;-71
2021/12/27 00:49:17;;;;;;;12.10;6.30;;;;;3.96;96956.60;;;;108833;1276;41859;-71
2021/12/27 00:51:46;;;;;;;15.50;6.70;;;;;4.00;96962.20;;;;108816;1276;41135;-71
2021/12/27 00:54:17;;;;;;;13.70;6.90;;;;;4.00;96970.20;;;;108680;1277;41165;-71
2021/12/27 00:56:47;;;;;;;14.40;6.60;;;;;4.00;96981.60;;;;108834;1275;41146;-71
2021/12/27 00:59:16;;;;;;;14.30;6.80;;;;;4.00;96983.40;;;;108799;1277;41372;-72
2021/12/27 01:01:45;;;;;;;12.70;6.10;;;;;4.00;96982.40;;;;108671;1277;41382;-69
2021/12/27 01:04:15;;;;;;;13.20;6.10;;;;;4.10;96986.20;;;;108741;1272;40785;-72
2021/12/27 01:06:45;;;;;;;13.60;6.30;;;;;4.10;96978.40;;;;108672;1276;41148;-68
2021/12/27 01:09:27;;;;;;;12.60;6.00;;;;;4.10;96970.60;;;;108700;1274;41184;-72
2021/12/27 01:12:30;;;;;;;12.20;6.30;;;;;4.10;96962.80;;;;108835;1276;41165;-72
2021/12/27 01:15:10;;;;;;;12.00;6.10;;;;;4.14;96960.60;;;;108682;1277;41147;-67
2021/12/27 01:17:42;;;;;;;14.20;6.70;;;;;4.16;96955.20;;;;108832;1276;41298;-71
2021/12/27 01:20:16;;;;;;;15.20;6.60;;;;;4.20;96950.60;;;;108623;1278;41748;-69
2021/12/27 01:22:45;;;;;;;13.20;6.30;;;;;4.20;96953.00;;;;108772;1277;42079;-74
2021/12/27 01:25:15;;;;;;;14.70;7.20;;;;;4.20;96955.60;;;;108742;1276;41713;-72
2021/12/27 01:27:45;;;;;;;13.10;6.60;;;;;4.20;96953.20;;;;108637;1276;41651;-67
2021/12/27 01:30:16;;;;;;;13.30;6.60;;;;;4.20;96950.40;;;;108665;1276;41942;-72
2021/12/27 01:32:51;;;;;;;14.00;7.00;;;;;4.20;96946.80;;;;108690;1276;41710;-72
2021/12/27 01:35:22;;;;;;;12.40;6.70;;;;;4.20;96941.20;;;;108763;1277;42240;-74
2021/12/27 01:37:53;;;;;;;14.20;7.00;;;;;4.20;96945.80;;;;108689;1276;41483;-74
2021/12/27 01:40:26;;;;;;;13.60;7.20;;;;;4.20;96937.80;;;;108827;1276;41148;-68
2021/12/27 01:43:08;;;;;;;12.70;6.80;;;;;4.20;96942.60;;;;108835;1276;41168;-69
2021/12/27 01:45:59;;;;;;;12.90;6.70;;;;;4.28;96940.80;;;;108862;1276;41632;-70
2021/12/27 01:48:32;;;;;;;12.50;6.90;;;;;4.30;96953.40;;;;108886;1276;41397;-68
2021/12/27 01:51:06;;;;;;;13.20;6.80;;;;;4.28;96958.20;;;;108789;1276;41599;-64
2021/12/27 01:53:37;;;;;;;11.90;6.10;;;;;4.26;96951.80;;;;108836;1277;41152;-74
2021/12/27 01:56:08;;;;;;;12.50;6.60;;;;;4.20;96952.40;;;;108705;1277;41151;-72
2021/12/27 01:58:37;;;;;;;;;;;;;4.20;96950.00;;;;108841;1276;41947;-70
2021/12/27 02:01:10;;;;;;;14.90;7.60;;;;;4.20;96955.40;;;;108814;1276;41148;-71
2021/12/27 02:03:42;;;;;;;15.20;8.10;;;;;4.16;96952.60;;;;108557;1277;41159;-64
2021/12/27 02:06:13;;;;;;;13.30;7.40;;;;;4.10;96949.20;;;;108866;1276;41172;-68
2021/12/27 02:08:44;;;;;;;15.90;7.50;;;;;4.10;96943.00;;;;108793;1276;41144;-65
2021/12/27 02:11:16;;;;;;;14.50;7.20;;;;;4.10;96943.60;;;;108618;1275;41347;-68
2021/12/27 02:13:46;;;;;;;12.90;6.90;;;;;4.06;96941.60;;;;108746;1276;41243;-70
2021/12/27 02:16:19;;;;;;;14.70;7.30;;;;;4.10;96937.40;;;;108567;1278;419856;-70
2021/12/27 02:18:49;;;;;;;12.40;6.20;;;;;4.10;96944.00;;;;108943;1275;41255;-63
2021/12/27 02:21:19;;;;;;;14.20;7.70;;;;;4.10;96952.80;;;;108840;1276;41157;-67
2021/12/27 02:23:50;;;;;;;14.60;7.00;;;;;4.08;96950.60;;;;108904;1277;41131;-71
2021/12/27 02:26:20;;;;;;;14.50;6.90;;;;;4.02;96950.40;;;;108827;1277;41941;-68
2021/12/27 02:28:50;;;;;;;13.20;7.00;;;;;4.00;96949.40;;;;108940;1276;41144;-69
2021/12/27 02:31:20;;;;;;;13.20;6.80;;;;;4.02;96947.60;;;;108904;1276;41181;-70
2021/12/27 02:33:50;;;;;;;15.30;7.00;;;;;4.00;96946.20;;;;108827;1277;41153;-68
2021/12/27 02:36:24;;;;;;;14.00;6.40;;;;;4.06;96947.40;;;;108856;1275;41466;-66
2021/12/27 02:38:54;;;;;;;13.60;6.50;;;;;4.10;96953.00;;;;108672;1277;41288;-72
2021/12/27 02:41:24;;;;;;;12.90;6.60;;;;;4.08;96955.80;;;;108936;1275;42376;-69
2021/12/27 02:43:53;;;;;;;14.30;7.10;;;;;4.10;96954.20;;;;108793;1277;41173;-70
2021/12/27 02:46:23;;;;;;;14.80;6.60;;;;;4.10;96949.40;;;;108837;1277;41149;-72
2021/12/27 02:48:53;;;;;;;13.20;6.60;;;;;4.10;96944.00;;;;108830;1274;41888;-70
2021/12/27 02:51:23;;;;;;;14.30;7.80;;;;;4.10;96935.20;;;;108858;1276;41394;-65
2021/12/27 02:53:53;;;;;;;14.90;7.40;;;;;4.10;96937.40;;;;108800;1277;41123;-72
2021/12/27 02:56:23;;;;;;;14.60;7.90;;;;;4.10;96934.00;;;;108693;1276;41651;-73
2021/12/27 02:58:53;;;;;;;17.40;7.80;;;;;4.14;96934.40;;;;108771;1276;41134;-73
2021/12/27 03:01:24;;;;;;;15.00;7.60;;;;;4.20;96937.40;;;;108867;1275;41713;-69
2021/12/27 03:03:54;;;;;;;16.60;8.00;;;;;4.20;96930.20;;;;108878;1275;41722;-69
2021/12/27 03:06:24;;;;;;;15.70;8.20;;;;;4.20;96928.00;;;;108863;1275;41144;-70
2021/12/27 03:08:54;;;;;;;16.80;8.60;;;;;4.20;96926.40;;;;108839;1275;41605;-71
2021/12/27 03:11:24;;;;;;;15.90;8.20;;;;;4.26;96918.60;;;;108847;1275;41403;-72
2021/12/27 03:13:55;;;;;;;17.00;9.00;;;;;4.30;96920.60;;;;108899;1276;42190;-72
2021/12/27 03:16:25;;;;;;;17.10;9.50;;;;;4.30;96910.60;;;;108834;1275;41255;-74
2021/12/27 03:18:55;;;;;;;17.10;9.20;;;;;4.30;96918.20;;;;108850;1275;42376;-71
2021/12/27 03:21:26;;;;;;;18.30;9.60;;;;;4.30;96917.00;;;;108871;1275;42944;-70
2021/12/27 03:23:56;;;;;;;16.40;9.00;;;;;4.30;96918.20;;;;108875;1275;41260;-72
2021/12/27 03:26:28;;;;;;;18.70;9.60;;;;;4.30;96915.20;;;;108727;1274;41730;-73
2021/12/27 03:28:58;;;;;;;18.30;9.70;;;;;4.34;96911.60;;;;108854;1277;41271;-73
2021/12/27 03:31:28;;;;;;;18.00;9.70;;;;;4.30;96915.40;;;;108866;1274;41252;-71
2021/12/27 03:33:59;;;;;;;18.40;10.10;;;;;4.30;96920.40;;;;108953;1274;41183;-72
2021/12/27 03:36:28;;;;;;;;;;;;;4.30;96924.80;;;;108933;1273;41643;-75
2021/12/27 03:38:59;;;;;;;17.80;9.40;;;;;4.30;96923.40;;;;108847;1274;41263;-75
2021/12/27 03:41:30;;;;;;;17.30;9.20;;;;;4.30;96922.00;;;;108983;1273;41151;-73
2021/12/27 03:44:01;;;;;;;16.40;8.70;;;;;4.30;96923.60;;;;108937;1274;41699;-73
2021/12/27 03:46:31;;;;;;;;;;;;;4.30;96923.20;;;;108887;1274;41191;-73
2021/12/27 03:49:01;;;;;;;17.50;9.10;;;;;4.28;96923.20;;;;108871;1276;41393;-70
2021/12/27 03:51:31;;;;;;;15.90;8.60;;;;;4.30;96922.40;;;;108897;1275;42528;-66
2021/12/27 03:54:02;;;;;;;15.50;8.30;;;;;4.30;96923.80;;;;108874;1276;41357;-73
2021/12/27 03:56:33;;;;;;;;;;;;;4.30;96928.00;;;;108884;1275;42189;-65
2021/12/27 04:01:59;;;;;;;14.20;7.40;;;;;4.32;96936.80;;;;108757;1275;41153;-71
2021/12/27 04:04:33;;;;;;;15.30;7.90;;;;;4.38;96922.40;;;;108853;1275;42205;-67
2021/12/27 04:07:05;;;;;;;14.20;7.40;;;;;4.40;96921.00;;;;108849;1275;41132;-66
2021/12/27 04:09:37;;;;;;;20.20;10.10;;;;;4.40;96917.80;;;;108897;1274;42189;-64
2021/12/27 04:12:07;;;;;;;18.30;9.80;;;;;4.40;96910.80;;;;108854;1274;41249;-69
2021/12/27 04:14:36;;;;;;;18.10;10.00;;;;;4.40;96909.20;;;;108852;1273;41885;-70
2021/12/27 04:17:06;;;;;;;19.20;9.20;;;;;4.40;96907.00;;;;108880;1274;41151;-71
2021/12/27 04:19:36;;;;;;;16.20;9.00;;;;;4.40;96909.60;;;;108864;1274;41251;-67
2021/12/27 04:22:05;;;;;;;16.70;8.30;;;;;4.40;96905.80;;;;108903;1274;42241;-72
2021/12/27 04:24:34;;;;;;;16.60;8.80;;;;;4.40;96908.40;;;;108798;1274;41142;-64
2021/12/27 04:27:04;;;;;;;17.50;8.50;;;;;4.48;96909.40;;;;108879;1274;41172;-73
2021/12/27 04:29:34;;;;;;;17.10;8.20;;;;;4.50;96910.60;;;;108825;1275;41386;-71
2021/12/27 04:32:04;;;;;;;16.40;8.00;;;;;4.50;96912.00;;;;108847;1275;41132;-73
2021/12/27 04:34:34;;;;;;;16.20;7.90;;;;;4.50;96913.20;;;;108854;1275;41142;-74
2021/12/27 04:37:03;;;;;;;14.60;7.20;;;;;4.50;96913.60;;;;108790;1274;41260;-67
2021/12/27 04:39:33;;;;;;;13.40;6.80;;;;;4.50;96913.80;;;;108863;1275;41549;-73
2021/12/27 04:42:05;;;;;;;15.30;7.80;;;;;4.50;96914.80;;;;108857;1277;41154;-73
2021/12/27 04:44:33;;;;;;;;;;;;;4.50;96916.20;;;;108882;1274;41149;-71
2021/12/27 04:47:04;;;;;;;15.00;7.80;;;;;4.50;96918.20;;;;108833;1277;41649;-68
2021/12/27 04:49:34;;;;;;;13.50;6.90;;;;;4.50;96917.60;;;;108909;1276;41147;-71
2021/12/27 04:52:04;;;;;;;13.80;6.70;;;;;4.42;96912.20;;;;108852;1276;41142;-71
2021/12/27 04:54:33;;;;;;;12.50;6.10;;;;;4.40;96909.40;;;;108892;1275;40793;-71
2021/12/27 04:57:04;;;;;;;12.90;6.10;;;;;4.40;96906.80;;;;108825;1275;41149;-71
2021/12/27 04:59:33;;;;;;;12.60;6.20;;;;;4.40;96909.40;;;;108882;1274;41960;-71
2021/12/27 05:02:03;;;;;;;14.70;7.10;;;;;4.40;96903.00;;;;108857;1274;41166;-72
2021/12/27 05:04:33;;;;;;;15.40;7.90;;;;;4.40;96904.80;;;;108775;1275;41249;-72
2021/12/27 05:07:03;;;;;;;13.00;6.80;;;;;4.40;96903.20;;;;108794;1274;41301;-72
2021/12/27 05:09:32;;;;;;;13.10;6.40;;;;;4.30;96903.80;;;;108843;1275;42065;-72
2021/12/27 05:12:02;;;;;;;12.60;5.80;;;;;4.30;96911.20;;;;108819;1274;41396;-72
2021/12/27 05:14:31;;;;;;;12.60;6.00;;;;;4.30;96914.40;;;;108865;1275;41151;-74
2021/12/27 05:17:00;;;;;;;12.50;6.30;;;;;4.30;96919.40;;;;108897;1274;42466;-73
2021/12/27 05:19:30;;;;;;;12.00;6.00;;;;;4.30;96913.40;;;;108868;1277;41294;-72
2021/12/27 05:22:00;;;;;;;14.30;6.40;;;;;4.34;96916.60;;;;108766;1276;41142;-72
2021/12/27 05:24:30;;;;;;;14.40;7.10;;;;;4.34;96913.60;;;;108850;1275;41593;-73
2021/12/27 05:26:59;;;;;;;13.50;6.80;;;;;4.36;96902.00;;;;108816;1275;41141;-73
2021/12/27 05:29:29;;;;;;;12.20;6.40;;;;;4.30;96899.60;;;;108847;1275;41145;-66
2021/12/27 05:32:01;;;;;;;12.40;6.80;;;;;4.30;96898.80;;;;108678;1275;41649;-72
2021/12/27 05:34:36;;;;;;;13.00;6.60;;;;;4.30;96901.80;;;;108892;1275;41268;-70
2021/12/27 05:37:09;;;;;;;13.60;6.90;;;;;4.22;96896.40;;;;108688;1277;41262;-73
2021/12/27 05:39:39;;;;;;;13.90;7.10;;;;;4.20;96899.20;;;;108866;1275;41731;-72
2021/12/27 05:42:09;;;;;;;13.00;6.00;;;;;4.20;96899.80;;;;108912;1274;41879;-74
2021/12/27 05:44:38;;;;;;;12.00;5.80;;;;;4.18;96901.00;;;;108988;1273;41404;-66
2021/12/27 05:47:08;;;;;;;11.90;5.90;;;;;4.10;96902.80;;;;108849;1273;41702;-73
2021/12/27 05:49:37;;;;;;;12.00;5.90;;;;;4.10;96903.40;;;;108818;1275;41201;-72
2021/12/27 05:52:07;;;;;;;12.60;5.70;;;;;4.16;96903.40;;;;108863;1273;41126;-71
2021/12/27 05:54:36;;;;;;;10.70;5.60;;;;;4.20;96900.80;;;;108915;1275;41262;-72
2021/12/27 05:57:06;;;;;;;12.90;5.50;;;;;4.20;96894.60;;;;108869;1274;41145;-73
2021/12/27 05:59:35;;;;;;;12.20;6.10;;;;;4.20;96895.40;;;;108764;1276;41401;-70
2021/12/27 06:02:04;;;;;;;13.90;6.10;;;;;4.26;96894.60;;;;108815;1275;41374;-65
2021/12/27 06:04:34;;;;;;;12.40;6.10;;;;;4.30;96897.80;;;;108894;1275;41144;-68
2021/12/27 06:07:03;;;;;;;13.60;5.90;;;;;4.30;96898.60;;;;108868;1274;41145;-72
2021/12/27 06:09:33;;;;;;;12.90;6.60;;;;;4.30;96892.20;;;;108822;1275;41595;-71
2021/12/27 06:12:03;;;;;;;13.60;7.00;;;;;4.30;96894.00;;;;108825;1274;41825;-68
2021/12/27 06:14:32;;;;;;;13.20;6.80;;;;;4.20;96897.20;;;;109095;1275;41151;-72
2021/12/27 06:17:02;;;;;;;13.30;6.80;;;;;4.20;96894.40;;;;108837;1274;42090;-72
2021/12/27 06:19:31;;;;;;;12.10;6.20;;;;;4.20;96894.00;;;;108888;1275;41165;-71
2021/12/27 06:22:02;;;;;;;13.00;6.20;;;;;4.20;96894.00;;;;108839;1276;42093;-67
2021/12/27 06:24:31;;;;;;;11.10;5.90;;;;;4.16;96896.40;;;;108858;1275;41414;-73
2021/12/27 06:27:00;;;;;;;11.70;6.00;;;;;4.12;96888.80;;;;108809;1275;41156;-69
2021/12/27 06:29:30;;;;;;;12.40;6.00;;;;;4.10;96886.00;;;;108834;1275;41150;-69
2021/12/27 06:31:59;;;;;;;14.50;6.00;;;;;4.10;96887.40;;;;108837;1275;41237;-71
2021/12/27 06:34:29;;;;;;;12.30;5.90;;;;;4.10;96883.60;;;;108851;1273;41603;-69
2021/12/27 06:36:58;;;;;;;13.10;6.70;;;;;4.10;96884.40;;;;108831;1274;41316;-71
2021/12/27 06:39:27;;;;;;;13.30;6.90;;;;;4.20;96883.60;;;;108803;1275;41345;-71
2021/12/27 06:41:56;;;;;;;12.30;5.90;;;;;4.20;96882.00;;;;108737;1274;41125;-68
2021/12/27 06:44:26;;;;;;;12.20;6.60;;;;;4.26;96882.00;;;;108850;1275;41752;-69
2021/12/27 06:46:59;;;;;;;12.90;7.00;;;;;4.30;96875.40;;;;108850;1273;41714;-70
2021/12/27 06:49:31;;;;;;;13.40;7.00;;;;;4.30;96882.40;;;;108720;1274;41904;-72
2021/12/27 06:52:00;;;;;;;13.10;6.50;;;;;4.40;96878.20;;;;108817;1276;41591;-70
2021/12/27 06:54:29;;;;;;;12.70;6.30;;;;;4.44;96871.60;;;;108806;1272;41141;-73
2021/12/27 06:57:00;;;;;;;13.10;6.70;;;;;4.50;96865.20;;;;108816;1275;44301;-71
2021/12/27 06:59:29;;;;;;;13.20;6.90;;;;;4.50;96863.80;;;;108845;1274;42202;-70
2021/12/27 07:01:58;;;;;;;13.00;6.70;;;;;4.60;96862.20;;;;108837;1274;41723;-70
2021/12/27 07:04:28;;;;;;;12.10;6.10;;;;;4.60;96859.00;;;;108855;1276;41243;-72
2021/12/27 07:06:58;;;;;;;15.30;7.00;;;;;4.68;96865.60;;;;108990;1274;40744;-72
2021/12/27 07:09:27;;;;;;;16.90;8.10;;;;;4.70;96863.80;;;;108868;1276;41457;-71
2021/12/27 07:11:56;;;;;;;15.90;8.70;;;;;4.72;96861.00;;;;108807;1275;41380;-69
2021/12/27 07:14:29;;;;;;;15.80;8.70;;;;;4.80;96859.60;;;;108717;1276;41132;-69
2021/12/27 07:16:59;;;;;;;19.80;10.70;;;;;4.80;96857.40;;;;108767;1277;41142;-73
2021/12/27 07:19:28;;;;;;;22.80;12.40;;;;;4.90;96849.80;;;;108598;1277;41838;-71
2021/12/27 07:21:58;;;;;;;22.60;12.80;;;;;4.90;96849.60;;;;108902;1276;41722;-67
2021/12/27 07:24:27;;;;;;;28.00;14.30;;;;;4.90;96850.20;;;;108880;1277;41332;-71
2021/12/27 07:26:56;;;;;;;24.20;14.40;;;;;4.90;96850.00;;;;108494;1277;41189;-64
2021/12/27 07:29:25;;;;;;;27.00;14.20;;;;;4.90;96850.20;;;;108716;1277;41263;-67
2021/12/27 07:31:54;;;;;;;23.30;13.00;;;;;4.84;96844.20;;;;108861;1277;41675;-69
2021/12/27 07:34:24;;;;;;;23.10;13.90;;;;;4.80;96840.00;;;;108833;1275;41605;-67
2021/12/27 07:36:54;;;;;;;21.90;12.60;;;;;4.80;96836.60;;;;108867;1273;41256;-67
2021/12/27 07:39:25;;;;;;;23.70;13.30;;;;;4.86;96837.60;;;;108857;1277;41213;-71
2021/12/27 07:41:54;;;;;;;23.50;13.40;;;;;4.86;96839.00;;;;108713;1277;41143;-73
2021/12/27 07:44:23;;;;;;;23.10;13.20;;;;;4.90;96837.80;;;;108901;1275;41151;-74
2021/12/27 07:46:52;;;;;;;20.90;12.10;;;;;4.90;96834.20;;;;108961;1276;41293;-73
2021/12/27 08:36:50;;;;;;;26.90;14.80;;;;;4.16;96844.80;;;;105764;1313;542006;-69
2021/12/27 08:39:20;;;;;;;23.60;14.10;;;;;4.22;96846.00;;;;108011;1289;41282;-72
2021/12/27 08:41:49;;;;;;;24.20;13.50;;;;;4.30;96850.00;;;;108183;1287;41271;-69
2021/12/27 08:44:18;;;;;;;25.20;14.50;;;;;4.30;96852.00;;;;108265;1287;41246;-66
2021/12/27 08:46:49;;;;;;;24.30;14.60;;;;;4.30;96844.80;;;;108104;1288;41450;-65
2021/12/27 08:49:21;;;;;;;25.40;15.10;;;;;4.34;96845.20;;;;107597;1285;789700;-75
2021/12/27 08:51:52;;;;;;;26.20;15.10;;;;;4.38;96846.20;;;;108290;1284;41779;-66
2021/12/27 08:54:22;;;;;;;25.20;14.80;;;;;4.40;96845.00;;;;108253;1285;42180;-69
2021/12/27 08:56:52;;;;;;;21.30;12.60;;;;;4.40;96839.40;;;;108342;1285;41877;-75
2021/12/27 08:59:24;;;;;;;22.90;13.30;;;;;4.44;96835.60;;;;108872;1276;41138;-72
2021/12/27 09:01:58;;;;;;;26.00;12.90;;;;;4.50;96832.60;;;;108600;1278;42492;-76
2021/12/27 09:04:27;;;;;;;23.30;13.40;;;;;4.50;96823.60;;;;108959;1277;41430;-66
2021/12/27 09:06:59;;;;;;;22.80;12.10;;;;;4.50;96823.40;;;;108753;1274;41138;-65
2021/12/27 09:09:29;;;;;;;19.60;11.50;;;;;4.50;96816.60;;;;108776;1274;41129;-64
2021/12/27 09:12:00;;;;;;;21.60;12.00;;;;;4.50;96821.40;;;;108814;1278;41169;-67
2021/12/27 09:14:29;;;;;;;20.80;11.10;;;;;4.52;96817.60;;;;108907;1273;41148;-65
2021/12/27 09:17:00;;;;;;;19.20;11.30;;;;;4.50;96809.20;;;;108837;1277;41376;-65
2021/12/27 09:19:30;;;;;;;19.30;11.30;;;;;4.60;96803.60;;;;108783;1276;41290;-67
2021/12/27 09:22:00;;;;;;;23.40;12.00;;;;;4.50;96804.40;;;;108760;1276;41574;-65
2021/12/27 09:24:31;;;;;;;21.80;12.50;;;;;4.50;96803.00;;;;108865;1276;41195;-70
2021/12/27 09:27:00;;;;;;;23.40;12.50;;;;;4.50;96800.00;;;;108797;1278;41178;-66
2021/12/27 09:29:29;;;;;;;25.60;13.10;;;;;4.50;96795.40;;;;108766;1278;41144;-66
2021/12/27 09:31:58;;;;;;;25.90;13.60;;;;;4.40;96797.40;;;;108879;1276;41228;-66
2021/12/27 09:34:28;;;;;;;23.80;13.30;;;;;4.40;96792.80;;;;108875;1275;41282;-70
2021/12/27 09:36:57;;;;;;;24.20;13.20;;;;;4.30;96794.40;;;;108889;1276;41928;-66
2021/12/27 09:39:26;;;;;;;21.40;12.10;;;;;4.30;96786.20;;;;108876;1275;41150;-64
2021/12/27 09:41:54;;;;;;;23.90;13.10;;;;;4.20;96783.80;;;;108758;1277;42362;-67
2021/12/27 09:44:24;;;;;;;21.50;12.60;;;;;4.20;96780.80;;;;108875;1275;42379;-69
2021/12/27 09:46:54;;;;;;;21.40;12.60;;;;;4.10;96772.00;;;;108824;1276;42517;-65
2021/12/27 09:49:29;;;;;;;21.00;11.70;;;;;4.10;96765.40;;;;108812;1277;42481;-69
2021/12/27 09:51:59;;;;;;;21.00;11.80;;;;;4.10;96760.60;;;;108999;1276;41300;-72
2021/12/27 09:54:29;;;;;;;23.50;12.20;;;;;4.10;96760.40;;;;108811;1277;41172;-68
2021/12/27 09:56:58;;;;;;;19.60;11.20;;;;;4.10;96756.80;;;;108844;1278;41152;-64
2021/12/27 09:59:27;;;;;;;18.90;11.10;;;;;4.10;96753.00;;;;108805;1277;41188;-68
2021/12/27 10:01:56;;;;;;;22.90;11.60;;;;;4.06;96752.00;;;;108829;1276;41185;-65
2021/12/27 10:04:25;;;;;;;23.10;11.50;;;;;4.00;96754.20;;;;108809;1277;41233;-64
2021/12/27 10:06:55;;;;;;;21.30;11.00;;;;;4.00;96754.20;;;;108853;1277;41606;-64
2021/12/27 10:09:25;;;;;;;20.00;10.40;;;;;4.00;96751.40;;;;108780;1278;41259;-64
2021/12/27 10:11:54;;;;;;;19.80;10.70;;;;;4.00;96756.00;;;;108887;1275;41611;-65
2021/12/27 10:14:26;;;;;;;20.40;11.90;;;;;4.00;96756.80;;;;108781;1273;41609;-65
2021/12/27 10:17:06;;;;;;;20.20;11.30;;;;;4.00;96756.40;;;;108914;1274;41348;-66
2021/12/27 10:19:36;;;;;;;23.10;10.80;;;;;4.08;96760.40;;;;109126;1274;41129;-65
2021/12/27 10:22:11;;;;;;;19.70;10.80;;;;;4.10;96771.00;;;;109100;1274;42384;-63
2021/12/27 10:24:40;;;;;;;17.10;9.50;;;;;4.10;96772.40;;;;109094;1273;41242;-64
2021/12/27 10:27:09;;;;;;;17.10;9.50;;;;;4.10;96774.80;;;;109171;1273;41259;-64
2021/12/27 10:29:41;;;;;;;17.30;9.60;;;;;4.20;96777.60;;;;109144;1272;41258;-66
2021/12/27 10:32:11;;;;;;;16.40;9.60;;;;;4.20;96779.60;;;;109109;1273;42124;-66
2021/12/27 10:34:46;;;;;;;15.30;8.10;;;;;4.20;96774.60;;;;109083;1274;41149;-68
2021/12/27 10:37:32;;;;;;;13.80;8.20;;;;;4.30;96776.40;;;;109143;1274;41129;-64
2021/12/27 10:40:05;;;;;;;15.60;7.90;;;;;4.30;96775.80;;;;109083;1273;41147;-65
2021/12/27 10:42:44;;;;;;;14.60;7.90;;;;;4.40;96771.40;;;;109152;1274;41597;-64
2021/12/27 10:45:20;;;;;;;14.70;7.80;;;;;4.40;96768.20;;;;108943;1274;41139;-71
2021/12/27 10:47:57;;;;;;;15.10;8.20;;;;;4.44;96759.80;;;;109094;1272;42282;-64
2021/12/27 10:50:31;;;;;;;17.70;9.00;;;;;4.50;96750.40;;;;109127;1272;41202;-66
2021/12/27 10:53:05;;;;;;;17.00;8.50;;;;;4.50;96745.60;;;;109121;1273;41139;-64
2021/12/27 10:55:40;;;;;;;16.30;7.80;;;;;4.50;96742.20;;;;109039;1273;42391;-64
2021/12/27 10:58:13;;;;;;;14.20;7.50;;;;;4.50;96740.60;;;;109036;1272;41297;-64
2021/12/27 11:00:44;;;;;;;15.50;7.20;;;;;4.50;96738.60;;;;109151;1274;40924;-64
2021/12/27 11:03:28;;;;;;;14.70;8.00;;;;;4.50;96735.20;;;;109075;1274;41192;-73
2021/12/27 11:05:58;;;;;;;14.40;7.10;;;;;4.60;96741.00;;;;109144;1271;41144;-68
2021/12/27 11:08:28;;;;;;;14.70;7.50;;;;;4.60;96749.20;;;;109112;1273;41989;-72
2021/12/27 11:10:57;;;;;;;15.20;8.30;;;;;4.66;96750.40;;;;109099;1274;41144;-66
2021/12/27 11:13:30;;;;;;;13.40;7.50;;;;;4.70;96745.20;;;;109156;1272;42326;-67
2021/12/27 11:15:59;;;;;;;13.30;6.80;;;;;4.70;96743.00;;;;109110;1272;41488;-65
2021/12/27 11:18:29;;;;;;;15.70;8.50;;;;;4.80;96738.00;;;;109284;1273;41246;-77
2021/12/27 11:21:06;;;;;;;15.70;8.60;;;;;4.84;96738.00;;;;108879;1274;41376;-71
2021/12/27 11:23:42;;;;;;;14.20;8.40;;;;;4.90;96732.60;;;;108950;1275;40736;-65
2021/12/27 11:26:33;;;;;;;14.70;7.80;;;;;4.94;96742.00;;;;109200;1272;41210;-64
2021/12/27 11:29:30;;;;;;;15.90;8.30;;;;;4.98;96731.00;;;;108832;1274;41143;-66
2021/12/27 11:32:21;;;;;;;16.20;8.40;;;;;5.00;96726.40;;;;108944;1274;41133;-69
2021/12/27 11:34:59;;;;;;;16.90;8.20;;;;;5.00;96726.00;;;;108911;1275;41262;-68
2021/12/27 11:37:42;;;;;;;15.00;7.30;;;;;5.06;96722.80;;;;108924;1273;42499;-74
2021/12/27 11:40:14;;;;;;;16.40;8.70;;;;;5.10;96720.00;;;;108691;1274;41151;-69
2021/12/27 11:42:56;;;;;;;17.60;8.80;;;;;5.10;96727.60;;;;108851;1275;41881;-75
2021/12/27 11:45:39;;;;;;;19.70;9.70;;;;;5.18;96720.20;;;;108991;1274;41250;-65
2021/12/27 11:48:26;;;;;;;18.60;9.80;;;;;5.20;96720.80;;;;108850;1275;41172;-72
2021/12/27 11:51:04;;;;;;;20.70;10.50;;;;;5.20;96718.00;;;;108749;1276;41138;-66
2021/12/27 11:53:48;;;;;;;18.50;9.90;;;;;5.20;96714.00;;;;108975;1275;41157;-65
2021/12/27 11:56:38;;;;;;;19.60;11.00;;;;;5.20;96712.40;;;;108872;1274;41973;-65
2021/12/27 11:59:36;;;;;;;22.00;11.10;;;;;5.20;96708.20;;;;109055;1274;41615;-71
2021/12/27 12:02:16;;;;;;;24.90;13.50;;;;;5.10;96702.00;;;;108716;1275;41714;-67
2021/12/27 12:04:50;;;;;;;28.60;15.90;;;;;5.10;96705.20;;;;108880;1275;41126;-65
2021/12/27 12:07:34;;;;;;;29.40;16.30;;;;;5.10;96704.40;;;;109077;1274;41308;-79
2021/12/27 12:10:13;;;;;;;29.30;16.40;;;;;5.10;96705.60;;;;109127;1274;41992;-64
2021/12/27 12:13:15;;;;;;;29.80;15.90;;;;;5.10;96707.40;;;;109004;1275;41144;-69
2021/12/27 12:16:11;;;;;;;24.90;14.10;;;;;5.10;96701.40;;;;108933;1276;41881;-70
2021/12/27 12:18:53;;;;;;;19.40;11.60;;;;;5.10;96704.00;;;;109041;1274;41767;-65
2021/12/27 12:21:34;;;;;;;19.80;11.60;;;;;5.10;96705.20;;;;108964;1275;41213;-69
2021/12/27 12:24:07;;;;;;;19.00;10.30;;;;;5.10;96708.20;;;;108941;1275;41259;-72
2021/12/27 12:27:12;;;;;;;18.00;9.90;;;;;5.10;96711.00;;;;108813;1275;41610;-67
2021/12/27 12:29:43;;;;;;;17.80;9.20;;;;;5.20;96710.20;;;;108402;1281;41259;-68
2021/12/27 12:32:15;;;;;;;17.40;9.60;;;;;5.20;96709.40;;;;108434;1281;41168;-66
2021/12/27 12:34:44;;;;;;;15.90;9.30;;;;;5.20;96709.00;;;;108464;1281;41154;-66
2021/12/27 12:37:16;;;;;;;18.20;9.80;;;;;5.30;96710.00;;;;108475;1280;41155;-72
2021/12/27 12:39:49;;;;;;;19.60;10.20;;;;;5.30;96710.40;;;;108356;1281;41142;-73
2021/12/27 12:42:21;;;;;;;19.50;10.60;;;;;5.30;96707.20;;;;108523;1279;41980;-70
2021/12/27 12:45:00;;;;;;;18.60;10.80;;;;;5.40;96707.40;;;;108476;1281;41157;-69
2021/12/27 12:47:42;;;;;;;19.90;10.60;;;;;5.40;96705.60;;;;108497;1281;41138;-67
2021/12/27 12:50:16;;;;;;;18.50;10.60;;;;;5.50;96706.00;;;;108491;1280;41155;-71
2021/12/27 12:52:49;;;;;;;19.90;10.30;;;;;5.50;96703.40;;;;108521;1279;42379;-75
2021/12/27 12:55:21;;;;;;;18.30;9.90;;;;;5.56;96697.80;;;;108497;1280;41177;-64
2021/12/27 12:57:50;;;;;;;;;;;;;5.60;96705.20;;;;108496;1280;41974;-73
2021/12/27 13:00:31;;;;;;;18.40;8.60;;;;;5.60;96702.20;;;;108492;1280;41191;-67
2021/12/27 13:03:13;;;;;;;16.90;9.60;;;;;5.60;96697.40;;;;108493;1281;41496;-72
2021/12/27 13:05:42;;;;;;;15.10;8.20;;;;;5.60;96700.20;;;;108773;1274;41152;-65
2021/12/27 13:08:13;;;;;;;15.20;8.20;;;;;5.60;96703.40;;;;109021;1274;41176;-66
2021/12/27 13:10:42;;;;;;;15.00;8.70;;;;;5.60;96704.60;;;;108881;1275;41642;-67
2021/12/27 13:13:11;;;;;;;17.40;9.00;;;;;5.60;96703.00;;;;108966;1274;41137;-65
2021/12/27 13:15:49;;;;;;;16.80;8.80;;;;;5.62;96701.60;;;;108997;1274;41249;-70
2021/12/27 13:18:21;;;;;;;15.60;8.70;;;;;5.70;96699.40;;;;108940;1274;41826;-68
2021/12/27 13:20:56;;;;;;;16.90;9.60;;;;;5.70;96695.60;;;;108919;1275;42304;-69
2021/12/27 13:23:28;;;;;;;17.10;9.60;;;;;5.70;96690.40;;;;108954;1274;41260;-75